Dades meteomassalio
Diari Summary for Octubre 19, 2017 Units:  English    Metric   Both
« Previous Day
Next Day »
Diari Semanal Mensual Anual Personalitzat
  Maxima: Minima: Mijana:
Temperatura: TemperatureC °F 8.3 °F 13.2 °F
Rosada: DewpointC °F 5.4 °F 9.1 °F
Humitat: Humidity % 65 % 77 %
Velocitat del vent: WindSpeedKMH mph 0.0 mph 8.9 mph
Racha vent: WindSpeedGustKMH mph - -
Vent:- - SW
Pressio: PressurehPa in 1012.4 in -
Pluja: 0.0 in    
Historical Graphs
 
 
Tabular Data for Octubre 19, 2017
Time Temperature Dew Point Pressure Wind Wind Speed Wind Gust Humidity Rainfall Rate (Hourly) solar Conditions
TemperatureC °F DewpointC °F PressurehPa in Calm     Humidity % HourlyPrecipMM in SolarRadiationWatts/m^2 W/m2 Conditions
00:00 13.3 °F 11.4 °F 1013.1 in Calm     88 % 0.0 in 0.0 W/m2 CLR
00:05 13.3 °F 11.4 °F 1013.1 in Calm     88 % 0.0 in 0.0 W/m2 RA
00:10 12.8 °F 10.8 °F 1013.1 in Calm     88 % 0.0 in 0.0 W/m2 CLR
00:15 12.8 °F 10.8 °F 1013.1 in Calm     88 % 0.0 in 0.0 W/m2 CLR
00:20 12.8 °F 11.0 °F 1012.8 in Calm     89 % 0.0 in 0.0 W/m2 CLR
00:25 12.2 °F 10.4 °F 1013.1 in Calm     89 % 0.0 in 0.0 W/m2 CLR
00:30 12.2 °F 10.4 °F 1013.1 in Calm     89 % 0.0 in 0.0 W/m2 CLR
00:35 12.2 °F 10.6 °F 1013.1 in Calm     90 % 0.0 in 0.0 W/m2 CLR
00:40 12.2 °F 10.6 °F 1012.8 in Calm     90 % 0.0 in 0.0 W/m2 CLR
00:45 12.2 °F 10.6 °F 1012.8 in Calm     90 % 0.0 in 0.0 W/m2 CLR
00:50 12.2 °F 10.6 °F 1012.8 in Calm     90 % 0.0 in 0.0 W/m2 CLR
00:55 11.7 °F 10.1 °F 1012.8 in Calm     90 % 0.0 in 0.0 W/m2 CLR
01:00 11.7 °F 10.1 °F 1012.8 in Calm     90 % 0.0 in 0.0 W/m2 CLR
01:05 11.7 °F 10.2 °F 1012.8 in Calm     91 % 0.0 in 0.0 W/m2 CLR
01:10 11.7 °F 10.2 °F 1012.8 in Calm     91 % 0.0 in 0.0 W/m2 CLR
01:15 11.7 °F 10.2 °F 1012.8 in Calm     91 % 0.0 in 0.0 W/m2 CLR
01:20 11.7 °F 10.2 °F 1013.1 in Calm     91 % 0.0 in 0.0 W/m2 CLR
01:25 11.7 °F 10.2 °F 1013.1 in Calm     91 % 0.0 in 0.0 W/m2 CLR
01:30 11.7 °F 10.2 °F 1013.1 in Calm     91 % 0.0 in 0.0 W/m2 CLR
01:35 11.1 °F 9.7 °F 1013.1 in Calm     91 % 0.0 in 0.0 W/m2 CLR
01:40 11.1 °F 9.8 °F 1013.1 in Calm     92 % 0.0 in 0.0 W/m2 CLR
01:45 11.1 °F 9.8 °F 1013.1 in Calm     92 % 0.0 in 0.0 W/m2 CLR
01:50 11.1 °F 9.8 °F 1013.1 in Calm     92 % 0.0 in 0.0 W/m2 CLR
01:55 11.1 °F 9.8 °F 1013.1 in Calm     92 % 0.0 in 0.0 W/m2 CLR
02:00 11.1 °F 9.8 °F 1013.1 in Calm     92 % 0.0 in 0.0 W/m2 CLR
02:05 11.1 °F 9.8 °F 1013.1 in Calm     92 % 0.0 in 0.0 W/m2 CLR
02:10 11.1 °F 9.8 °F 1013.1 in Calm     92 % 0.0 in 0.0 W/m2 CLR
02:15 11.1 °F 9.8 °F 1013.1 in Calm     92 % 0.0 in 0.0 W/m2 CLR
02:20 11.1 °F 9.7 °F 1013.1 in Calm     91 % 0.0 in 0.0 W/m2 CLR
02:25 11.1 °F 9.8 °F 1013.1 in Calm     92 % 0.0 in 0.0 W/m2 CLR
02:30 11.1 °F 9.8 °F 1013.1 in Calm     92 % 0.0 in 0.0 W/m2 CLR
02:35 11.1 °F 9.8 °F 1013.1 in Calm     92 % 0.0 in 0.0 W/m2 CLR
02:40 11.1 °F 9.8 °F 1013.1 in Calm     92 % 0.0 in 0.0 W/m2 CLR
02:45 10.6 °F 9.3 °F 1013.4 in Calm     92 % 0.0 in 0.0 W/m2 CLR
02:50 10.6 °F 9.3 °F 1013.1 in Calm     92 % 0.0 in 0.0 W/m2 CLR
02:55 10.6 °F 9.3 °F 1013.1 in Calm     92 % 0.0 in 0.0 W/m2 CLR
03:00 10.6 °F 9.2 °F 1013.4 in Calm     91 % 0.0 in 0.0 W/m2 CLR
03:05 10.6 °F 9.2 °F 1013.4 in Calm     91 % 0.0 in 0.0 W/m2 CLR
03:10 10.6 °F 8.8 °F 1013.4 in Calm     89 % 0.0 in 0.0 W/m2 CLR
03:15 10.6 °F 8.8 °F 1013.8 in Calm     89 % 0.0 in 0.0 W/m2 CLR
03:20 10.6 °F 8.7 °F 1013.8 in Calm     88 % 0.0 in 0.0 W/m2 CLR
03:25 10.6 °F 8.3 °F 1013.8 in Calm     86 % 0.0 in 0.0 W/m2 CLR
03:30 10.6 °F 8.1 °F 1013.4 in Calm     85 % 0.0 in 0.0 W/m2 CLR
03:35 10.6 °F 8.1 °F 1013.4 in Calm     85 % 0.0 in 0.0 W/m2 CLR
03:40 10.6 °F 7.9 °F 1013.4 in Calm     84 % 0.0 in 0.0 W/m2 CLR
03:45 10.6 °F 7.9 °F 1013.4 in Calm     84 % 0.0 in 0.0 W/m2 CLR
03:50 10.6 °F 8.1 °F 1013.8 in Calm     85 % 0.0 in 0.0 W/m2 CLR
03:55 10.6 °F 8.3 °F 1013.8 in Calm     86 % 0.0 in 0.0 W/m2 CLR
04:00 10.6 °F 8.3 °F 1013.8 in Calm     86 % 0.0 in 0.0 W/m2 CLR
04:05 10.6 °F 8.5 °F 1013.8 in Calm     87 % 0.0 in 0.0 W/m2 CLR
04:10 10.6 °F 8.3 °F 1013.4 in Calm     86 % 0.0 in 0.0 W/m2 CLR
04:15 10.6 °F 8.3 °F 1013.4 in Calm     86 % 0.0 in 0.0 W/m2 CLR
04:20 11.1 °F 8.8 °F 1013.4 in Calm     86 % 0.0 in 0.0 W/m2 CLR
04:25 11.1 °F 8.3 °F 1013.4 in Calm     83 % 0.0 in 0.0 W/m2 CLR
04:30 11.1 °F 8.2 °F 1013.4 in Calm     82 % 0.0 in 0.0 W/m2 CLR
04:35 10.6 °F 7.4 °F 1013.4 in SSE 4.8 mph 4.8 mph 81 % 0.0 in 0.0 W/m2 CLR
04:40 11.1 °F 8.3 °F 1013.1 in SSE 7.4 mph 7.4 mph 83 % 0.0 in 0.0 W/m2 CLR
04:45 11.1 °F 8.5 °F 1013.4 in Calm     84 % 0.0 in 0.0 W/m2 CLR
04:50 11.1 °F 8.5 °F 1013.1 in SSE 9.3 mph 9.3 mph 84 % 0.0 in 0.0 W/m2 CLR
04:55 11.1 °F 8.5 °F 1013.1 in SSE 9.3 mph 9.3 mph 84 % 0.0 in 0.0 W/m2 CLR
05:00 11.1 °F 8.5 °F 1013.1 in South 6.4 mph 6.4 mph 84 % 0.0 in 0.0 W/m2 CLR
05:05 11.1 °F 8.5 °F 1013.1 in Calm     84 % 0.0 in 0.0 W/m2 CLR
05:10 10.6 °F 7.9 °F 1013.1 in Calm     84 % 0.0 in 0.0 W/m2 CLR
05:16 10.6 °F 7.8 °F 1012.8 in Calm     83 % 0.0 in 0.0 W/m2 CLR
05:20 10.0 °F 7.2 °F 1013.1 in Calm     83 % 0.0 in 0.0 W/m2 CLR
05:25 10.0 °F 7.4 °F 1012.8 in Calm     84 % 0.0 in 0.0 W/m2 CLR
05:26 10.0 °F 7.4 °F 1012.8 in Calm     84 % 0.0 in 0.0 W/m2 CLR
05:28 10.0 °F 7.4 °F 1012.8 in Calm     84 % 0.0 in 0.0 W/m2 CLR
05:29 10.0 °F 7.4 °F 1013.1 in Calm     84 % 0.0 in 0.0 W/m2 CLR
05:33 10.0 °F 7.6 °F 1013.1 in Calm     85 % 0.0 in 0.0 W/m2 CLR
05:37 10.0 °F 7.6 °F 1013.1 in Calm     85 % 0.0 in 0.0 W/m2 CLR
05:38 9.4 °F 7.2 °F 1013.1 in Calm     86 % 0.0 in 0.0 W/m2 CLR
05:43 9.4 °F 7.2 °F 1013.1 in Calm     86 % 0.0 in 0.0 W/m2 CLR
05:48 9.4 °F 7.4 °F 1013.1 in Calm     87 % 0.0 in 0.0 W/m2 CLR
05:53 9.4 °F 7.4 °F 1013.1 in Calm     87 % 0.0 in 0.0 W/m2 CLR
05:58 9.4 °F 7.4 °F 1013.1 in Calm     87 % 0.0 in 0.0 W/m2 CLR
06:04 9.4 °F 7.4 °F 1012.8 in Calm     87 % 0.0 in 0.0 W/m2 CLR
06:09 9.4 °F 7.4 °F 1012.8 in Calm     87 % 0.0 in 0.0 W/m2 CLR
06:14 8.9 °F 6.7 °F 1012.8 in Calm     86 % 0.0 in 0.0 W/m2 CLR
06:19 8.9 °F 6.7 °F 1012.8 in Calm     86 % 0.0 in 0.0 W/m2 CLR
06:24 8.9 °F 6.7 °F 1012.8 in Calm     86 % 0.0 in 0.0 W/m2 CLR
06:29 8.9 °F 6.7 °F 1013.1 in Calm     86 % 0.0 in 0.0 W/m2 CLR
06:34 8.9 °F 6.8 °F 1013.1 in Calm     87 % 0.0 in 0.0 W/m2 CLR
06:39 8.3 °F 6.4 °F 1013.1 in Calm     88 % 0.0 in 0.0 W/m2 CLR
06:44 8.3 °F 6.4 °F 1013.1 in Calm     88 % 0.0 in 0.0 W/m2 CLR
06:49 8.3 °F 6.4 °F 1012.8 in Calm     88 % 0.0 in 0.0 W/m2 CLR
06:54 8.3 °F 6.6 °F 1013.1 in South 9.3 mph 9.3 mph 89 % 0.0 in 0.0 W/m2 CLR
06:59 8.3 °F 6.4 °F 1013.1 in SSE 9.3 mph 9.3 mph 88 % 0.0 in 0.0 W/m2 CLR
07:04 8.3 °F 6.4 °F 1013.1 in South 5.6 mph 5.6 mph 88 % 0.0 in 0.0 W/m2 CLR
07:09 8.3 °F 6.3 °F 1013.1 in Calm     87 % 0.0 in 0.0 W/m2 CLR
07:14 8.9 °F 6.8 °F 1012.8 in Calm     87 % 0.0 in 0.0 W/m2 CLR
07:19 8.9 °F 6.8 °F 1012.8 in Calm     87 % 0.0 in 0.0 W/m2 CLR
07:24 8.9 °F 6.8 °F 1013.1 in Calm     87 % 0.0 in 0.0 W/m2 CLR
07:29 8.9 °F 7.0 °F 1013.1 in Calm     88 % 0.0 in 0.0 W/m2 CLR
07:34 8.9 °F 7.0 °F 1013.1 in SSE 9.7 mph 9.7 mph 88 % 0.0 in 0.0 W/m2 CLR
07:39 9.4 °F 7.4 °F 1013.1 in SSE 9.7 mph 9.7 mph 87 % 0.0 in 0.0 W/m2 CLR
07:44 9.4 °F 7.1 °F 1013.4 in South 9.3 mph 9.3 mph 85 % 0.0 in 0.0 W/m2 CLR
07:49 9.4 °F 6.7 °F 1013.4 in Calm     83 % 0.0 in 0.0 W/m2 CLR
07:54 9.4 °F 6.3 °F 1013.4 in Calm     81 % 0.0 in 0.0 W/m2 CLR
07:59 9.4 °F 6.2 °F 1013.4 in SSW 5.6 mph 5.6 mph 80 % 0.0 in 0.0 W/m2 CLR
08:04 9.4 °F 5.8 °F 1013.4 in SSW 11.3 mph 11.3 mph 78 % 0.0 in 0.0 W/m2 CLR
08:09 9.4 °F 5.6 °F 1013.4 in South 11.1 mph 11.1 mph 77 % 0.0 in 0.0 W/m2 OVC
08:14 9.4 °F 5.4 °F 1013.4 in SSE 13.0 mph 13.0 mph 76 % 0.0 in 0.0 W/m2 OVC
08:19 10.0 °F 6.2 °F 1013.4 in Calm     77 % 0.0 in 0.0 W/m2 OVC
08:24 10.0 °F 6.2 °F 1013.4 in South 7.4 mph 7.4 mph 77 % 0.0 in 5.0 W/m2 OVC
08:29 10.0 °F 6.2 °F 1013.4 in South 7.4 mph 7.4 mph 77 % 0.0 in 9.0 W/m2 BKN
08:34 10.0 °F 5.9 °F 1013.4 in SE 7.4 mph 7.4 mph 76 % 0.0 in 11.0 W/m2 BKN
08:39 10.0 °F 6.7 °F 1013.4 in Calm     80 % 0.0 in 12.0 W/m2 BKN
08:44 10.0 °F 6.9 °F 1013.4 in Calm     81 % 0.0 in 16.0 W/m2 BKN
08:49 10.0 °F 6.7 °F 1013.8 in Calm     80 % 0.0 in 18.0 W/m2 BKN
08:54 10.0 °F 6.5 °F 1013.8 in Calm     79 % 0.0 in 19.0 W/m2 BKN
09:04 10.0 °F 6.7 °F 1013.8 in South 1.6 mph 1.6 mph 80 % 0.0 in 39.0 W/m2 BKN
09:10 10.0 °F 6.5 °F 1014.1 in Calm     79 % 0.0 in 47.0 W/m2 SCT
09:20 10.6 °F 6.7 °F 1014.1 in Calm   0.6 mph 77 % 0.0 in 62.0 W/m2 SCT
09:25 10.6 °F 6.3 °F 1014.1 in South 9.3 mph 9.3 mph 75 % 0.0 in 62.0 W/m2 SCT
09:30 10.6 °F 6.3 °F 1014.4 in SSW 11.1 mph 11.1 mph 75 % 0.0 in 56.0 W/m2 SCT
09:35 10.6 °F 6.5 °F 1014.4 in Calm     76 % 0.0 in 47.0 W/m2 SCT
09:40 10.6 °F 6.9 °F 1014.4 in Calm     78 % 0.0 in 33.0 W/m2 SCT
09:45 10.6 °F 7.1 °F 1014.4 in Calm     79 % 0.0 in 56.0 W/m2 BKN
09:50 10.6 °F 7.1 °F 1014.4 in Calm     79 % 0.0 in 83.0 W/m2 SCT
09:55 10.6 °F 7.1 °F 1014.4 in South 5.6 mph 5.6 mph 79 % 0.0 in 113.0 W/m2 FEW
10:00 10.6 °F 6.9 °F 1014.4 in Calm     78 % 0.0 in 114.0 W/m2 CLR
10:05 11.1 °F 7.6 °F 1014.8 in Calm     79 % 0.0 in 127.0 W/m2 CLR
10:10 11.1 °F 7.8 °F 1014.4 in Calm     80 % 0.0 in 123.0 W/m2 CLR
10:15 11.1 °F 7.6 °F 1014.4 in Calm     79 % 0.0 in 113.0 W/m2 CLR
10:20 11.7 °F 8.2 °F 1014.4 in Calm     79 % 0.0 in 114.0 W/m2 CLR
10:25 11.7 °F 7.8 °F 1014.4 in SW 5.6 mph 5.6 mph 77 % 0.0 in 111.0 W/m2 CLR
10:30 11.7 °F 7.8 °F 1014.4 in Calm     77 % 0.0 in 134.0 W/m2 CLR
10:35 11.7 °F 7.6 °F 1014.4 in SW 1.6 mph 2.4 mph 76 % 0.0 in 142.0 W/m2 CLR
10:40 12.2 °F 8.3 °F 1014.4 in West 8.0 mph 8.0 mph 77 % 0.0 in 148.0 W/m2 CLR
10:45 12.2 °F 8.1 °F 1014.4 in SW 7.4 mph 7.4 mph 76 % 0.0 in 135.0 W/m2 CLR
10:50 12.2 °F 8.1 °F 1014.4 in SSW 4.8 mph 4.8 mph 76 % 0.0 in 190.0 W/m2 CLR
10:55 12.8 °F 8.4 °F 1014.8 in Calm     75 % 0.0 in 213.0 W/m2 CLR
11:00 12.8 °F 8.4 °F 1014.8 in Calm     75 % 0.0 in 214.0 W/m2 CLR
11:05 12.8 °F 8.4 °F 1014.8 in Calm   0.6 mph 75 % 0.0 in 186.0 W/m2 CLR
11:10 13.3 °F 8.8 °F 1014.8 in Calm     74 % 0.0 in 193.0 W/m2 CLR
11:15 13.3 °F 8.8 °F 1014.8 in SSW 5.6 mph 5.6 mph 74 % 0.0 in 190.0 W/m2 CLR
11:20 13.3 °F 8.6 °F 1014.8 in SSW 9.3 mph 9.3 mph 73 % 0.0 in 186.0 W/m2 CLR
11:25 13.3 °F 8.6 °F 1014.8 in Calm     73 % 0.0 in 190.0 W/m2 CLR
11:30 12.8 °F 8.3 °F 1014.8 in SW 6.4 mph 6.4 mph 74 % 0.0 in 221.0 W/m2 CLR
11:35 13.3 °F 8.8 °F 1014.8 in SW 14.5 mph 14.5 mph 74 % 0.0 in 304.0 W/m2 CLR
11:40 13.3 °F 8.8 °F 1014.8 in SW 13.0 mph 13.0 mph 74 % 0.0 in 318.0 W/m2 CLR
11:45 13.9 °F 9.1 °F 1014.8 in West 9.7 mph 9.7 mph 73 % 0.0 in 422.0 W/m2 CLR
11:50 13.9 °F 8.9 °F 1014.8 in WSW 18.5 mph 18.5 mph 72 % 0.0 in 327.0 W/m2 CLR
11:55 13.9 °F 8.9 °F 1014.4 in SW 14.8 mph 14.8 mph 72 % 0.0 in 520.0 W/m2 CLR
12:00 14.4 °F 9.2 °F 1014.4 in SW 11.1 mph 11.1 mph 71 % 0.0 in 501.0 W/m2 CLR
12:05 14.4 °F 9.4 °F 1014.4 in SW 13.0 mph 13.0 mph 72 % 0.0 in 519.0 W/m2 CLR
12:10 14.4 °F 9.2 °F 1014.4 in SW 14.8 mph 14.8 mph 71 % 0.0 in 211.0 W/m2 CLR
12:15 14.4 °F 9.7 °F 1014.4 in Calm     73 % 0.0 in 578.0 W/m2 CLR
12:20 14.4 °F 9.2 °F 1014.4 in West 3.7 mph   71 % 0.0 in 422.0 W/m2 CLR
12:25 15.0 °F 9.8 °F 1014.4 in West 14.8 mph 14.8 mph 71 % 0.0 in 612.0 W/m2 CLR
12:30 15.0 °F 9.8 °F 1014.4 in SW 3.7 mph   71 % 0.0 in 353.0 W/m2 CLR
12:35 15.0 °F 9.6 °F 1014.4 in WSW 9.7 mph 9.7 mph 70 % 0.0 in 454.0 W/m2 CLR
12:40 15.0 °F 9.6 °F 1014.4 in Calm     70 % 0.0 in 334.0 W/m2 CLR
12:45 15.0 °F 10.0 °F 1014.4 in Calm     72 % 0.0 in 308.0 W/m2 CLR
12:50 15.0 °F 10.0 °F 1014.4 in West 7.4 mph 7.4 mph 72 % 0.0 in 271.0 W/m2 CLR
12:55 15.0 °F 10.0 °F 1014.4 in West 11.1 mph 11.1 mph 72 % 0.0 in 283.0 W/m2 CLR
13:00 15.0 °F 10.0 °F 1014.4 in SW 5.6 mph   72 % 0.0 in 322.0 W/m2 CLR
13:05 15.0 °F 10.0 °F 1014.4 in SW 14.8 mph 14.8 mph 72 % 0.0 in 362.0 W/m2 CLR
13:10 15.0 °F 9.8 °F 1014.1 in WSW 9.7 mph 9.7 mph 71 % 0.0 in 343.0 W/m2 CLR
13:15 15.6 °F 10.9 °F 1014.1 in WSW 18.5 mph 18.5 mph 74 % 0.0 in 396.0 W/m2 CLR
13:20 15.0 °F 10.0 °F 1014.1 in WSW 7.4 mph 7.4 mph 72 % 0.0 in 346.0 W/m2 CLR
13:25 15.6 °F 10.5 °F 1014.1 in SW 11.1 mph 11.1 mph 72 % 0.0 in 394.0 W/m2 CLR
13:30 15.6 °F 10.5 °F 1014.1 in WSW 14.8 mph 14.8 mph 72 % 0.0 in 457.0 W/m2 CLR
13:35 15.6 °F 10.5 °F 1014.1 in WSW 17.7 mph 17.7 mph 72 % 0.0 in 257.0 W/m2 CLR
13:40 15.6 °F 10.3 °F 1014.1 in West 13.0 mph 13.0 mph 71 % 0.0 in 244.0 W/m2 CLR
13:45 15.0 °F 10.0 °F 1014.1 in WSW 11.1 mph 11.1 mph 72 % 0.0 in 246.0 W/m2 CLR
13:50 15.6 °F 10.5 °F 1014.1 in WNW 16.7 mph 16.7 mph 72 % 0.0 in 253.0 W/m2 CLR
13:55 15.0 °F 10.2 °F 1013.8 in SW 14.8 mph 14.8 mph 73 % 0.0 in 283.0 W/m2 CLR
14:00 15.6 °F 10.9 °F 1013.8 in West 18.5 mph 18.5 mph 74 % 0.0 in 308.0 W/m2 CLR
14:06 15.6 °F 10.5 °F 1013.4 in West 9.3 mph 9.3 mph 72 % 0.0 in 283.0 W/m2 CLR
14:11 15.0 °F 10.0 °F 1013.8 in WSW 13.0 mph 13.0 mph 72 % 0.0 in 304.0 W/m2 CLR
14:16 15.6 °F 10.5 °F 1013.8 in SW 18.5 mph 18.5 mph 72 % 0.0 in 251.0 W/m2 CLR
14:21 15.6 °F 10.3 °F 1013.8 in West 14.8 mph 14.8 mph 71 % 0.0 in 185.0 W/m2 CLR
14:26 15.6 °F 10.7 °F 1013.8 in WSW 9.3 mph 9.3 mph 73 % 0.0 in 192.0 W/m2 CLR
14:31 15.6 °F 10.7 °F 1013.4 in WSW 24.1 mph 24.1 mph 73 % 0.0 in 192.0 W/m2 CLR
14:36 15.6 °F 10.7 °F 1013.4 in WSW 18.5 mph 18.5 mph 73 % 0.0 in 195.0 W/m2 CLR
14:41 15.0 °F 10.2 °F 1013.4 in WSW 5.6 mph 6.4 mph 73 % 0.0 in 207.0 W/m2 CLR
14:46 15.6 °F 10.3 °F 1013.1 in WSW 18.5 mph 18.5 mph 71 % 0.0 in 251.0 W/m2 CLR
14:51 15.6 °F 10.3 °F 1013.1 in West 22.2 mph 22.2 mph 71 % 0.0 in 234.0 W/m2 CLR
14:56 15.6 °F 10.3 °F 1013.1 in SW 18.5 mph 18.5 mph 71 % 0.0 in 202.0 W/m2 CLR
15:01 15.6 °F 10.3 °F 1013.4 in WSW 16.7 mph 16.7 mph 71 % 0.0 in 172.0 W/m2 CLR
15:06 15.6 °F 10.3 °F 1013.4 in WSW 18.5 mph 18.5 mph 71 % 0.0 in 171.0 W/m2 CLR
15:11 15.6 °F 10.3 °F 1013.4 in SW 5.6 mph   71 % 0.0 in 172.0 W/m2 CLR
15:16 15.6 °F 10.3 °F 1013.4 in West 9.7 mph 9.7 mph 71 % 0.0 in 160.0 W/m2 CLR
15:21 15.6 °F 10.3 °F 1013.4 in West 13.0 mph 13.0 mph 71 % 0.0 in 149.0 W/m2 CLR
15:22 15.6 °F 10.3 °F 1013.4 in SW 5.6 mph 5.6 mph 71 % 0.0 in 142.0 W/m2 CLR
15:27 15.6 °F 10.5 °F 1013.4 in West 5.6 mph 5.6 mph 72 % 0.0 in 121.0 W/m2 CLR
15:37 15.0 °F 10.0 °F 1013.4 in Calm     72 % 0.0 in 90.0 W/m2 CLR
15:42 15.0 °F 10.0 °F 1013.4 in WSW 13.0 mph 13.0 mph 72 % 0.0 in 105.0 W/m2 CLR
15:47 15.0 °F 10.0 °F 1013.4 in SW 5.6 mph 5.6 mph 72 % 0.0 in 121.0 W/m2 CLR
15:52 15.6 °F 10.5 °F 1013.1 in Calm     72 % 0.0 in 155.0 W/m2 CLR
15:57 15.6 °F 10.5 °F 1013.1 in WSW 9.3 mph 9.3 mph 72 % 0.0 in 207.0 W/m2 CLR
16:02 16.1 °F 10.8 °F 1013.1 in West 5.6 mph   71 % 0.0 in 258.0 W/m2 CLR
16:07 16.1 °F 10.8 °F 1013.1 in WSW 12.9 mph 12.9 mph 71 % 0.0 in 276.0 W/m2 CLR
16:12 16.1 °F 10.6 °F 1013.1 in WSW 13.0 mph 13.0 mph 70 % 0.0 in 313.0 W/m2 CLR
16:17 16.1 °F 10.8 °F 1013.1 in WSW 16.1 mph 16.1 mph 71 % 0.0 in 229.0 W/m2 CLR
16:22 16.1 °F 10.4 °F 1013.1 in WSW 18.5 mph 18.5 mph 69 % 0.0 in 239.0 W/m2 CLR
16:27 16.1 °F 10.4 °F 1013.1 in WSW 20.4 mph 20.4 mph 69 % 0.0 in 220.0 W/m2 CLR
16:32 16.1 °F 10.4 °F 1012.8 in WSW 20.4 mph 20.4 mph 69 % 0.0 in 218.0 W/m2 CLR
16:37 16.1 °F 10.4 °F 1012.8 in West 17.7 mph 17.7 mph 69 % 0.0 in 216.0 W/m2 CLR
16:42 16.1 °F 10.2 °F 1012.8 in WSW 20.4 mph 20.4 mph 68 % 0.0 in 260.0 W/m2 CLR
16:47 16.7 °F 10.7 °F 1012.8 in SW 18.5 mph 18.5 mph 68 % 0.0 in 246.0 W/m2 CLR
16:48 16.7 °F 10.7 °F 1012.8 in SW 19.3 mph 19.3 mph 68 % 0.0 in 239.0 W/m2 CLR
16:53 16.7 °F 10.3 °F 1012.8 in West 20.9 mph 20.9 mph 66 % 0.0 in 236.0 W/m2 CLR
16:58 16.7 °F 10.5 °F 1012.8 in WSW 20.4 mph 20.4 mph 67 % 0.0 in 234.0 W/m2 CLR
17:03 16.7 °F 10.5 °F 1012.8 in WSW 6.4 mph 6.4 mph 67 % 0.0 in 218.0 W/m2 CLR
17:08 16.7 °F 10.7 °F 1012.4 in SW 7.4 mph 7.4 mph 68 % 0.0 in 141.0 W/m2 CLR
17:13 16.1 °F 9.8 °F 1012.4 in SSW 22.2 mph 22.2 mph 66 % 0.0 in 100.0 W/m2 CLR
17:18 16.1 °F 9.8 °F 1012.4 in SW 22.2 mph 22.2 mph 66 % 0.0 in 102.0 W/m2 CLR
17:23 16.1 °F 10.0 °F 1012.4 in SW 18.5 mph 18.5 mph 67 % 0.0 in 105.0 W/m2 CLR
17:28 16.1 °F 10.2 °F 1012.4 in West 25.9 mph 25.9 mph 68 % 0.0 in 98.0 W/m2 CLR
17:34 16.1 °F 10.2 °F 1012.8 in SW 22.2 mph 22.2 mph 68 % 0.0 in 90.0 W/m2 CLR
17:39 16.1 °F 10.2 °F 1012.4 in WSW 22.2 mph 22.2 mph 68 % 0.0 in 74.0 W/m2 CLR
17:44 16.1 °F 10.0 °F 1012.4 in SW 16.7 mph 16.7 mph 67 % 0.0 in 84.0 W/m2 FEW
17:49 16.1 °F 10.0 °F 1012.4 in SW 14.8 mph 14.8 mph 67 % 0.0 in 63.0 W/m2 FEW
17:54 16.1 °F 9.8 °F 1012.4 in WSW 22.2 mph 22.2 mph 66 % 0.0 in 46.0 W/m2 FEW
17:59 16.1 °F 9.8 °F 1012.4 in WSW 18.5 mph 18.5 mph 66 % 0.0 in 47.0 W/m2 SCT
18:04 16.1 °F 10.0 °F 1012.8 in West 13.0 mph 13.0 mph 67 % 0.0 in 42.0 W/m2 SCT
18:09 16.1 °F 10.0 °F 1012.8 in WSW 14.8 mph 14.8 mph 67 % 0.0 in 35.0 W/m2 BKN
18:14 16.1 °F 10.0 °F 1012.8 in Calm     67 % 0.0 in 32.0 W/m2 BKN
18:19 16.1 °F 9.8 °F 1012.8 in SSW 14.8 mph 14.8 mph 66 % 0.0 in 35.0 W/m2 BKN
18:24 16.1 °F 10.0 °F 1013.1 in WSW 18.5 mph 18.5 mph 67 % 0.0 in 35.0 W/m2 BKN
18:29 16.1 °F 9.8 °F 1012.8 in WSW 16.7 mph 16.7 mph 66 % 0.0 in 42.0 W/m2 BKN
18:34 16.1 °F 10.0 °F 1013.1 in SW 16.1 mph 16.1 mph 67 % 0.0 in 46.0 W/m2 SCT
18:39 16.1 °F 10.0 °F 1013.1 in WSW 18.5 mph 18.5 mph 67 % 0.0 in 40.0 W/m2 BKN
18:44 16.1 °F 9.8 °F 1013.1 in SW 16.7 mph 16.7 mph 66 % 0.0 in 26.0 W/m2 BKN
18:49 16.1 °F 9.8 °F 1013.1 in SW 16.7 mph 16.7 mph 66 % 0.0 in 23.0 W/m2 BKN
18:54 16.1 °F 9.8 °F 1013.1 in SW 13.0 mph 13.0 mph 66 % 0.0 in 18.0 W/m2 BKN
18:59 16.1 °F 9.5 °F 1013.1 in WSW 18.5 mph 18.5 mph 65 % 0.0 in 14.0 W/m2 BKN
19:04 16.1 °F 9.8 °F 1013.1 in WSW 18.5 mph 18.5 mph 66 % 0.0 in 11.0 W/m2 BKN
19:09 16.1 °F 9.8 °F 1013.1 in WSW 18.5 mph 18.5 mph 66 % 0.0 in 5.0 W/m2 OVC
19:14 16.1 °F 9.8 °F 1013.4 in WSW 18.5 mph 18.5 mph 66 % 0.0 in 0.0 W/m2 OVC
19:19 16.1 °F 9.8 °F 1013.4 in WSW 20.4 mph 20.4 mph 66 % 0.0 in 0.0 W/m2 OVC
19:24 16.1 °F 9.8 °F 1013.4 in WSW 16.7 mph 16.7 mph 66 % 0.0 in 0.0 W/m2 CLR
19:29 15.6 °F 9.2 °F 1013.4 in WSW 18.5 mph 18.5 mph 66 % 0.0 in 0.0 W/m2 CLR
19:34 16.1 °F 9.5 °F 1013.8 in West 14.8 mph 14.8 mph 65 % 0.0 in 0.0 W/m2 CLR
19:39 15.6 °F 9.0 °F 1013.8 in SW 18.5 mph 18.5 mph 65 % 0.0 in 0.0 W/m2 CLR
19:40 15.6 °F 9.0 °F 1013.8 in WSW 18.5 mph 18.5 mph 65 % 0.0 in 0.0 W/m2 CLR
19:45 15.6 °F 9.2 °F 1013.8 in WSW 18.5 mph 18.5 mph 66 % 0.0 in 0.0 W/m2 CLR
19:50 15.6 °F 9.2 °F 1013.8 in West 18.5 mph 18.5 mph 66 % 0.0 in 0.0 W/m2 CLR
19:55 15.6 °F 9.4 °F 1013.8 in West 1.9 mph 1.9 mph 67 % 0.0 in 0.0 W/m2 CLR
20:00 15.6 °F 9.7 °F 1013.8 in SW 16.7 mph 16.7 mph 68 % 0.0 in 0.0 W/m2 CLR
20:05 15.6 °F 9.7 °F 1013.8 in WSW 18.5 mph 18.5 mph 68 % 0.0 in 0.0 W/m2 CLR
20:10 15.6 °F 9.9 °F 1013.8 in WSW 24.1 mph 24.1 mph 69 % 0.0 in 0.0 W/m2 CLR
20:15 15.6 °F 9.7 °F 1014.1 in WSW 20.9 mph 20.9 mph 68 % 0.0 in 0.0 W/m2 CLR
20:20 15.6 °F 9.7 °F 1014.1 in WSW 18.5 mph 18.5 mph 68 % 0.0 in 0.0 W/m2 CLR
20:25 15.6 °F 9.7 °F 1014.1 in WSW 20.4 mph 20.4 mph 68 % 0.0 in 0.0 W/m2 CLR
20:35 15.6 °F 9.7 °F 1014.1 in WSW 22.2 mph 22.2 mph 68 % 0.0 in 0.0 W/m2 CLR
20:40 15.6 °F 9.7 °F 1014.1 in WSW 20.4 mph 20.4 mph 68 % 0.0 in 0.0 W/m2 CLR
20:45 15.6 °F 9.9 °F 1014.1 in SW 18.5 mph 18.5 mph 69 % 0.0 in 0.0 W/m2 CLR
20:50 15.6 °F 9.9 °F 1014.1 in SW 18.5 mph 18.5 mph 69 % 0.0 in 0.0 W/m2 CLR
20:55 15.6 °F 9.9 °F 1014.1 in SW 22.5 mph 22.5 mph 69 % 0.0 in 0.0 W/m2 CLR
21:00 15.6 °F 9.9 °F 1014.1 in WSW 18.5 mph 18.5 mph 69 % 0.0 in 0.0 W/m2 CLR
21:05 15.6 °F 9.9 °F 1014.1 in SW 18.5 mph 18.5 mph 69 % 0.0 in 0.0 W/m2 CLR
21:10 15.6 °F 9.9 °F 1014.1 in SW 20.4 mph 20.4 mph 69 % 0.0 in 0.0 W/m2 CLR
21:15 15.6 °F 9.9 °F 1014.1 in WSW 18.5 mph 18.5 mph 69 % 0.0 in 0.0 W/m2 CLR
21:20 15.6 °F 10.1 °F 1014.1 in WSW 27.8 mph 27.8 mph 70 % 0.0 in 0.0 W/m2 CLR
21:25 15.6 °F 10.1 °F 1014.1 in SW 24.1 mph 24.1 mph 70 % 0.0 in 0.0 W/m2 CLR
21:30 15.6 °F 10.1 °F 1014.1 in WSW 24.1 mph 24.1 mph 70 % 0.0 in 0.0 W/m2 CLR
21:35 15.6 °F 10.1 °F 1014.1 in SSW 22.2 mph 22.2 mph 70 % 0.0 in 0.0 W/m2 CLR
21:40 15.6 °F 10.3 °F 1014.4 in SW 24.1 mph 24.1 mph 71 % 0.0 in 0.0 W/m2 CLR
21:45 15.6 °F 10.3 °F 1014.4 in WSW 25.7 mph 25.7 mph 71 % 0.0 in 0.0 W/m2 CLR
21:50 15.6 °F 10.3 °F 1014.4 in WSW 25.9 mph 25.9 mph 71 % 0.0 in 0.0 W/m2 CLR
21:55 15.6 °F 10.3 °F 1014.4 in SW 25.9 mph 25.9 mph 71 % 0.0 in 0.0 W/m2 CLR
22:00 15.6 °F 10.3 °F 1014.4 in SW 25.9 mph 25.9 mph 71 % 0.0 in 0.0 W/m2 CLR
22:05 15.6 °F 10.3 °F 1014.4 in SSW 25.9 mph 25.9 mph 71 % 0.0 in 0.0 W/m2 CLR
22:10 15.6 °F 10.5 °F 1014.4 in SSW 18.5 mph 18.5 mph 72 % 0.0 in 0.0 W/m2 CLR
22:15 15.6 °F 10.5 °F 1014.8 in SSW 20.9 mph 20.9 mph 72 % 0.0 in 0.0 W/m2 CLR
22:20 15.6 °F 10.5 °F 1014.8 in SW 18.5 mph 18.5 mph 72 % 0.0 in 0.0 W/m2 CLR
22:25 15.6 °F 10.5 °F 1014.8 in SSW 22.2 mph 22.2 mph 72 % 0.0 in 0.0 W/m2 CLR
22:30 15.6 °F 10.5 °F 1014.8 in SW 20.9 mph 20.9 mph 72 % 0.0 in 0.0 W/m2 CLR
22:35 15.6 °F 10.5 °F 1014.8 in SW 19.3 mph 19.3 mph 72 % 0.0 in 0.0 W/m2 CLR
22:40 15.6 °F 10.5 °F 1015.1 in SW 13.0 mph 13.0 mph 72 % 0.0 in 0.0 W/m2 CLR
22:45 15.6 °F 10.5 °F 1015.1 in SW 17.7 mph 17.7 mph 72 % 0.0 in 0.0 W/m2 CLR
22:50 15.6 °F 10.5 °F 1015.1 in SW 16.7 mph 16.7 mph 72 % 0.0 in 0.0 W/m2 CLR
22:55 15.6 °F 10.5 °F 1015.5 in SW 14.8 mph 14.8 mph 72 % 0.0 in 0.0 W/m2 CLR
23:00 15.6 °F 10.5 °F 1015.5 in SSW 16.7 mph 16.7 mph 72 % 0.0 in 0.0 W/m2 CLR
23:05 15.6 °F 10.5 °F 1015.5 in SSW 18.5 mph 18.5 mph 72 % 0.0 in 0.0 W/m2 CLR
23:10 15.6 °F 10.3 °F 1015.5 in SSW 14.8 mph 14.8 mph 71 % 0.0 in 0.0 W/m2 CLR
23:15 15.6 °F 10.3 °F 1015.5 in SSW 11.1 mph 11.1 mph 71 % 0.0 in 0.0 W/m2 CLR
23:20 15.6 °F 10.1 °F 1015.5 in SW 16.7 mph 16.7 mph 70 % 0.0 in 0.0 W/m2 CLR
23:25 15.6 °F 10.3 °F 1015.5 in SW 12.9 mph 12.9 mph 71 % 0.0 in 0.0 W/m2 CLR
23:30 15.6 °F 10.1 °F 1015.8 in SW 18.5 mph 18.5 mph 70 % 0.0 in 0.0 W/m2 CLR
23:35 15.6 °F 10.1 °F 1015.5 in SW 16.7 mph 16.7 mph 70 % 0.0 in 0.0 W/m2 CLR
23:40 15.6 °F 10.1 °F 1015.8 in SSW 13.0 mph 13.0 mph 70 % 0.0 in 0.0 W/m2 CLR
23:45 15.6 °F 9.9 °F 1015.8 in SW 17.7 mph 17.7 mph 69 % 0.0 in 0.0 W/m2 CLR
23:50 15.6 °F 9.9 °F 1015.8 in WSW 18.5 mph 18.5 mph 69 % 0.0 in 0.0 W/m2 CLR
23:55 15.6 °F 9.9 °F 1015.8 in SSW 18.5 mph 18.5 mph 69 % 0.0 in 0.0 W/m2 CLR
Lo Temps de Massalio
Compliments of Weather Underground - 1.25 mb